sensor_id;sensor_type;location;lat;lon;timestamp;pressure;altitude;pressure_sealevel;temperature;humidity
18850;BME280;4989;48.772;9.154;2023-09-07T00:01:09;98308.28;;;23.32;63.44
18850;BME280;4989;48.772;9.154;2023-09-07T00:06:11;98304.34;;;22.91;64.63
18850;BME280;4989;48.772;9.154;2023-09-07T00:11:14;98302.31;;;22.91;67.95
18850;BME280;4989;48.772;9.154;2023-09-07T00:16:17;98306.81;;;23.65;64.66
18850;BME280;4989;48.772;9.154;2023-09-07T00:21:20;98307.91;;;23.85;64.06
18850;BME280;4989;48.772;9.154;2023-09-07T00:26:24;98312.44;;;23.88;63.45
18850;BME280;4989;48.772;9.154;2023-09-07T00:31:26;98310.88;;;24.20;65.07
18850;BME280;4989;48.772;9.154;2023-09-07T00:36:29;98307.88;;;24.07;60.60
18850;BME280;4989;48.772;9.154;2023-09-07T00:41:32;98308.81;;;23.37;63.83
18850;BME280;4989;48.772;9.154;2023-09-07T00:46:34;98316.72;;;23.83;66.56
18850;BME280;4989;48.772;9.154;2023-09-07T00:51:38;98300.56;;;24.21;62.94
18850;BME280;4989;48.772;9.154;2023-09-07T00:56:42;98303.81;;;24.19;62.35
18850;BME280;4989;48.772;9.154;2023-09-07T01:01:44;98310.38;;;23.71;61.12
18850;BME280;4989;48.772;9.154;2023-09-07T01:06:57;98309.47;;;23.15;64.92
18850;BME280;4989;48.772;9.154;2023-09-07T01:12:04;98312.28;;;23.20;66.80
18850;BME280;4989;48.772;9.154;2023-09-07T01:17:07;98303.28;;;23.59;63.61
18850;BME280;4989;48.772;9.154;2023-09-07T01:22:11;98306.88;;;23.76;64.55
18850;BME280;4989;48.772;9.154;2023-09-07T01:27:14;98315.44;;;23.90;60.60
18850;BME280;4989;48.772;9.154;2023-09-07T01:32:17;98302.84;;;24.00;65.25
18850;BME280;4989;48.772;9.154;2023-09-07T01:37:19;98302.53;;;23.64;60.27
18850;BME280;4989;48.772;9.154;2023-09-07T01:42:22;98296.72;;;23.51;65.84
18850;BME280;4989;48.772;9.154;2023-09-07T01:47:25;98297.75;;;23.65;61.43
18850;BME280;4989;48.772;9.154;2023-09-07T01:52:28;98300.34;;;22.49;63.78
18850;BME280;4989;48.772;9.154;2023-09-07T01:57:31;98306.81;;;22.34;67.93
18850;BME280;4989;48.772;9.154;2023-09-07T02:02:35;98307.63;;;22.46;67.20
18850;BME280;4989;48.772;9.154;2023-09-07T02:07:37;98307.31;;;22.81;68.51
18850;BME280;4989;48.772;9.154;2023-09-07T02:12:40;98310.50;;;23.17;68.00
18850;BME280;4989;48.772;9.154;2023-09-07T02:17:43;98302.78;;;23.55;67.33
18850;BME280;4989;48.772;9.154;2023-09-07T02:22:50;98312.84;;;23.47;64.62
18850;BME280;4989;48.772;9.154;2023-09-07T02:27:53;98311.88;;;23.61;64.15
18850;BME280;4989;48.772;9.154;2023-09-07T02:32:56;98303.53;;;23.55;62.58
18850;BME280;4989;48.772;9.154;2023-09-07T02:37:59;98291.59;;;22.61;66.07
18850;BME280;4989;48.772;9.154;2023-09-07T02:43:01;98301.03;;;22.86;69.36
18850;BME280;4989;48.772;9.154;2023-09-07T02:48:06;98295.09;;;22.56;66.88
18850;BME280;4989;48.772;9.154;2023-09-07T02:53:10;98295.44;;;22.32;69.47
18850;BME280;4989;48.772;9.154;2023-09-07T02:58:12;98301.19;;;22.23;69.48
18850;BME280;4989;48.772;9.154;2023-09-07T03:03:16;98289.22;;;22.43;68.70
18850;BME280;4989;48.772;9.154;2023-09-07T03:08:21;98289.94;;;22.86;68.68
18850;BME280;4989;48.772;9.154;2023-09-07T03:13:23;98286.63;;;23.42;66.74
18850;BME280;4989;48.772;9.154;2023-09-07T03:18:26;98282.91;;;22.85;65.45
18850;BME280;4989;48.772;9.154;2023-09-07T03:23:29;98280.16;;;22.43;66.03
18850;BME280;4989;48.772;9.154;2023-09-07T03:28:33;98285.53;;;21.57;70.85
18850;BME280;4989;48.772;9.154;2023-09-07T03:33:36;98291.53;;;21.09;73.24
18850;BME280;4989;48.772;9.154;2023-09-07T03:38:39;98291.97;;;20.61;74.30
18850;BME280;4989;48.772;9.154;2023-09-07T03:43:41;98291.00;;;20.64;76.54
18850;BME280;4989;48.772;9.154;2023-09-07T03:48:44;98274.09;;;21.43;75.29
18850;BME280;4989;48.772;9.154;2023-09-07T03:53:47;98286.00;;;22.13;71.42
18850;BME280;4989;48.772;9.154;2023-09-07T03:58:49;98282.66;;;22.40;71.32
18850;BME280;4989;48.772;9.154;2023-09-07T04:03:52;98275.81;;;22.36;71.96
18850;BME280;4989;48.772;9.154;2023-09-07T04:08:55;98276.38;;;22.40;71.43
18850;BME280;4989;48.772;9.154;2023-09-07T04:13:58;98276.44;;;23.00;70.42
18850;BME280;4989;48.772;9.154;2023-09-07T04:19:01;98275.69;;;23.11;65.65
18850;BME280;4989;48.772;9.154;2023-09-07T04:24:04;98275.25;;;21.89;69.54
18850;BME280;4989;48.772;9.154;2023-09-07T04:29:07;98284.13;;;22.30;73.36
18850;BME280;4989;48.772;9.154;2023-09-07T04:34:10;98275.88;;;22.96;71.70
18850;BME280;4989;48.772;9.154;2023-09-07T04:39:13;98277.63;;;22.07;74.51
18850;BME280;4989;48.772;9.154;2023-09-07T04:44:16;98271.16;;;21.84;73.72
18850;BME280;4989;48.772;9.154;2023-09-07T04:49:20;98274.91;;;22.13;70.81
18850;BME280;4989;48.772;9.154;2023-09-07T04:54:22;98276.16;;;21.80;71.69
18850;BME280;4989;48.772;9.154;2023-09-07T04:59:25;98285.00;;;21.53;75.01
18850;BME280;4989;48.772;9.154;2023-09-07T05:04:29;98286.66;;;22.02;72.34
18850;BME280;4989;48.772;9.154;2023-09-07T05:09:34;98286.69;;;22.39;68.53
18850;BME280;4989;48.772;9.154;2023-09-07T05:14:37;98300.25;;;22.06;70.37
18850;BME280;4989;48.772;9.154;2023-09-07T05:19:40;98304.00;;;22.29;70.97
18850;BME280;4989;48.772;9.154;2023-09-07T05:24:46;98297.56;;;21.80;70.71
18850;BME280;4989;48.772;9.154;2023-09-07T05:29:50;98301.13;;;21.60;70.38
18850;BME280;4989;48.772;9.154;2023-09-07T05:34:52;98318.63;;;21.45;71.32
18850;BME280;4989;48.772;9.154;2023-09-07T05:39:55;98323.34;;;21.39;70.20
18850;BME280;4989;48.772;9.154;2023-09-07T05:44:58;98323.06;;;21.37;70.29
18850;BME280;4989;48.772;9.154;2023-09-07T05:50:01;98311.00;;;21.66;72.08
18850;BME280;4989;48.772;9.154;2023-09-07T05:55:05;98315.31;;;21.99;68.65
18850;BME280;4989;48.772;9.154;2023-09-07T06:00:08;98318.69;;;22.09;67.99
18850;BME280;4989;48.772;9.154;2023-09-07T06:05:20;98314.31;;;22.28;69.35
18850;BME280;4989;48.772;9.154;2023-09-07T06:10:23;98316.09;;;22.74;66.72
18850;BME280;4989;48.772;9.154;2023-09-07T06:15:26;98309.72;;;23.11;66.73
18850;BME280;4989;48.772;9.154;2023-09-07T06:20:30;98315.63;;;23.52;64.71
18850;BME280;4989;48.772;9.154;2023-09-07T06:25:34;98320.91;;;23.34;62.76
18850;BME280;4989;48.772;9.154;2023-09-07T06:30:37;98312.34;;;23.43;63.00
18850;BME280;4989;48.772;9.154;2023-09-07T06:35:40;98314.91;;;23.63;66.94
18850;BME280;4989;48.772;9.154;2023-09-07T06:40:48;98317.47;;;24.29;61.64
18850;BME280;4989;48.772;9.154;2023-09-07T06:45:53;98320.19;;;24.62;62.31
18850;BME280;4989;48.772;9.154;2023-09-07T06:51:02;98318.38;;;24.87;60.90
18850;BME280;4989;48.772;9.154;2023-09-07T06:56:08;98324.56;;;25.22;61.79
18850;BME280;4989;48.772;9.154;2023-09-07T07:01:11;98336.56;;;25.47;61.38
18850;BME280;4989;48.772;9.154;2023-09-07T07:06:14;98328.88;;;25.64;60.38
18850;BME280;4989;48.772;9.154;2023-09-07T07:11:17;98334.59;;;25.83;60.96
18850;BME280;4989;48.772;9.154;2023-09-07T07:16:19;98340.09;;;25.94;55.19
18850;BME280;4989;48.772;9.154;2023-09-07T07:21:23;98337.59;;;26.21;58.90
18850;BME280;4989;48.772;9.154;2023-09-07T07:26:27;98342.66;;;26.53;58.39
18850;BME280;4989;48.772;9.154;2023-09-07T07:31:30;98332.47;;;26.80;56.89
18850;BME280;4989;48.772;9.154;2023-09-07T07:36:33;98335.47;;;27.06;53.70
18850;BME280;4989;48.772;9.154;2023-09-07T07:41:37;98332.72;;;27.25;54.06
18850;BME280;4989;48.772;9.154;2023-09-07T07:46:44;98330.81;;;27.52;54.20
18850;BME280;4989;48.772;9.154;2023-09-07T07:51:49;98334.78;;;27.95;53.11
18850;BME280;4989;48.772;9.154;2023-09-07T07:56:52;98333.13;;;28.05;53.84
18850;BME280;4989;48.772;9.154;2023-09-07T08:01:55;98329.28;;;28.35;50.19
18850;BME280;4989;48.772;9.154;2023-09-07T08:06:58;98327.75;;;28.66;48.54
18850;BME280;4989;48.772;9.154;2023-09-07T08:12:07;98332.38;;;28.76;49.48
18850;BME280;4989;48.772;9.154;2023-09-07T08:17:12;98319.88;;;29.04;47.83
18850;BME280;4989;48.772;9.154;2023-09-07T08:22:15;98308.97;;;27.89;50.09
18850;BME280;4989;48.772;9.154;2023-09-07T08:27:19;98308.91;;;28.93;48.41
18850;BME280;4989;48.772;9.154;2023-09-07T08:32:27;98315.19;;;27.44;50.59
18850;BME280;4989;48.772;9.154;2023-09-07T08:37:30;98329.78;;;28.79;48.46
18850;BME280;4989;48.772;9.154;2023-09-07T08:42:35;98328.75;;;29.77;46.08
18850;BME280;4989;48.772;9.154;2023-09-07T08:47:39;98327.53;;;30.06;45.51
18850;BME280;4989;48.772;9.154;2023-09-07T08:52:43;98318.09;;;29.96;45.80
18850;BME280;4989;48.772;9.154;2023-09-07T08:57:47;98325.06;;;30.45;46.06
18850;BME280;4989;48.772;9.154;2023-09-07T09:02:50;98326.13;;;30.63;44.14
18850;BME280;4989;48.772;9.154;2023-09-07T09:08:02;98323.19;;;31.41;43.77
18850;BME280;4989;48.772;9.154;2023-09-07T09:13:06;98325.47;;;32.88;40.75
18850;BME280;4989;48.772;9.154;2023-09-07T09:18:10;98317.09;;;33.28;41.23
18850;BME280;4989;48.772;9.154;2023-09-07T09:23:14;98310.13;;;32.66;43.00
18850;BME280;4989;48.772;9.154;2023-09-07T09:28:17;98305.78;;;33.69;40.43
18850;BME280;4989;48.772;9.154;2023-09-07T09:33:20;98308.69;;;34.11;38.73
18850;BME280;4989;48.772;9.154;2023-09-07T09:38:26;98307.94;;;34.53;39.36
18850;BME280;4989;48.772;9.154;2023-09-07T09:43:29;98306.44;;;34.35;39.62
18850;BME280;4989;48.772;9.154;2023-09-07T09:48:32;98300.13;;;34.44;39.38
18850;BME280;4989;48.772;9.154;2023-09-07T09:53:36;98291.84;;;34.98;38.19
18850;BME280;4989;48.772;9.154;2023-09-07T09:58:39;98297.41;;;35.77;36.96
18850;BME280;4989;48.772;9.154;2023-09-07T10:03:45;98291.63;;;35.58;37.33
18850;BME280;4989;48.772;9.154;2023-09-07T10:09:03;98297.28;;;35.31;37.54
18850;BME280;4989;48.772;9.154;2023-09-07T10:14:09;98296.22;;;35.81;37.08
18850;BME280;4989;48.772;9.154;2023-09-07T10:19:24;98296.00;;;37.01;34.44
18850;BME280;4989;48.772;9.154;2023-09-07T10:24:31;98292.59;;;38.35;33.53
18850;BME280;4989;48.772;9.154;2023-09-07T10:29:51;98275.81;;;38.39;33.65
18850;BME280;4989;48.772;9.154;2023-09-07T10:35:00;98277.69;;;38.89;32.53
18850;BME280;4989;48.772;9.154;2023-09-07T10:40:03;98266.81;;;38.64;32.67
18850;BME280;4989;48.772;9.154;2023-09-07T10:45:12;98264.81;;;37.71;34.36
18850;BME280;4989;48.772;9.154;2023-09-07T10:50:17;98259.47;;;37.65;34.30
18850;BME280;4989;48.772;9.154;2023-09-07T10:55:20;98255.75;;;37.94;34.31
18850;BME280;4989;48.772;9.154;2023-09-07T11:00:23;98254.28;;;38.36;33.60
18850;BME280;4989;48.772;9.154;2023-09-07T11:05:26;98250.75;;;39.47;31.97
18850;BME280;4989;48.772;9.154;2023-09-07T11:10:36;98249.59;;;38.83;31.93
18850;BME280;4989;48.772;9.154;2023-09-07T11:15:39;98254.13;;;38.12;32.85
18850;BME280;4989;48.772;9.154;2023-09-07T11:20:42;98249.41;;;39.03;31.94
18850;BME280;4989;48.772;9.154;2023-09-07T11:25:48;98242.94;;;40.06;30.94
18850;BME280;4989;48.772;9.154;2023-09-07T11:30:55;98249.34;;;39.24;31.97
18850;BME280;4989;48.772;9.154;2023-09-07T11:35:58;98229.59;;;38.93;32.25
18850;BME280;4989;48.772;9.154;2023-09-07T11:41:00;98233.75;;;38.47;32.89
18850;BME280;4989;48.772;9.154;2023-09-07T11:46:03;98232.22;;;38.67;32.69
18850;BME280;4989;48.772;9.154;2023-09-07T11:51:07;98228.06;;;38.47;32.38
18850;BME280;4989;48.772;9.154;2023-09-07T11:56:11;98219.53;;;38.47;32.93
18850;BME280;4989;48.772;9.154;2023-09-07T12:01:14;98212.97;;;37.29;33.66
18850;BME280;4989;48.772;9.154;2023-09-07T12:06:19;98212.19;;;33.38;40.10
18850;BME280;4989;48.772;9.154;2023-09-07T12:11:21;98198.94;;;31.88;42.72
18850;BME280;4989;48.772;9.154;2023-09-07T12:16:26;98201.50;;;30.66;44.80
18850;BME280;4989;48.772;9.154;2023-09-07T12:21:31;98203.34;;;29.98;47.05
18850;BME280;4989;48.772;9.154;2023-09-07T12:26:34;98207.53;;;29.42;47.70
18850;BME280;4989;48.772;9.154;2023-09-07T12:31:39;98197.97;;;29.79;47.80
18850;BME280;4989;48.772;9.154;2023-09-07T12:36:42;98196.88;;;30.32;46.82
18850;BME280;4989;48.772;9.154;2023-09-07T12:41:45;98193.00;;;29.64;48.49
18850;BME280;4989;48.772;9.154;2023-09-07T12:46:47;98189.88;;;31.06;45.44
18850;BME280;4989;48.772;9.154;2023-09-07T12:51:50;98189.66;;;29.95;47.70
18850;BME280;4989;48.772;9.154;2023-09-07T12:56:53;98184.16;;;31.80;44.14
18850;BME280;4989;48.772;9.154;2023-09-07T13:01:56;98191.56;;;30.65;45.70
18850;BME280;4989;48.772;9.154;2023-09-07T13:06:58;98184.31;;;30.04;46.66
18850;BME280;4989;48.772;9.154;2023-09-07T13:12:04;98176.91;;;29.44;48.55
18850;BME280;4989;48.772;9.154;2023-09-07T13:17:12;98179.19;;;29.66;48.03
18850;BME280;4989;48.772;9.154;2023-09-07T13:22:15;98168.72;;;31.05;45.69
18850;BME280;4989;48.772;9.154;2023-09-07T13:27:17;98166.56;;;36.35;36.01
18850;BME280;4989;48.772;9.154;2023-09-07T13:32:21;98173.78;;;38.43;33.23
18850;BME280;4989;48.772;9.154;2023-09-07T13:37:23;98163.13;;;39.69;31.67
18850;BME280;4989;48.772;9.154;2023-09-07T13:42:26;98153.19;;;39.93;31.27
18850;BME280;4989;48.772;9.154;2023-09-07T13:47:29;98151.41;;;38.70;32.28
18850;BME280;4989;48.772;9.154;2023-09-07T13:52:32;98150.63;;;38.70;32.67
18850;BME280;4989;48.772;9.154;2023-09-07T13:57:35;98146.81;;;38.65;32.48
18850;BME280;4989;48.772;9.154;2023-09-07T14:02:37;98142.31;;;40.64;29.98
18850;BME280;4989;48.772;9.154;2023-09-07T14:07:40;98147.75;;;41.00;29.71
18850;BME280;4989;48.772;9.154;2023-09-07T14:12:43;98151.50;;;39.53;31.74
18850;BME280;4989;48.772;9.154;2023-09-07T14:17:46;98145.13;;;38.39;33.01
18850;BME280;4989;48.772;9.154;2023-09-07T14:22:49;98136.88;;;39.11;32.28
18850;BME280;4989;48.772;9.154;2023-09-07T14:27:52;98133.34;;;37.06;35.03
18850;BME280;4989;48.772;9.154;2023-09-07T14:32:54;98131.22;;;37.16;34.80
18850;BME280;4989;48.772;9.154;2023-09-07T14:37:57;98137.16;;;37.83;33.50
18850;BME280;4989;48.772;9.154;2023-09-07T14:43:00;98131.81;;;38.53;32.89
18850;BME280;4989;48.772;9.154;2023-09-07T14:48:03;98129.09;;;38.00;34.17
18850;BME280;4989;48.772;9.154;2023-09-07T14:53:06;98126.28;;;36.66;35.37
18850;BME280;4989;48.772;9.154;2023-09-07T14:58:08;98130.38;;;37.04;35.07
18850;BME280;4989;48.772;9.154;2023-09-07T15:03:12;98122.75;;;36.17;36.59
18850;BME280;4989;48.772;9.154;2023-09-07T15:08:14;98121.38;;;36.28;35.76
18850;BME280;4989;48.772;9.154;2023-09-07T15:13:17;98120.91;;;35.26;37.47
18850;BME280;4989;48.772;9.154;2023-09-07T15:18:21;98126.53;;;35.17;37.25
18850;BME280;4989;48.772;9.154;2023-09-07T15:23:24;98124.31;;;34.98;37.65
18850;BME280;4989;48.772;9.154;2023-09-07T15:28:27;98112.03;;;35.49;37.79
18850;BME280;4989;48.772;9.154;2023-09-07T15:33:30;98111.38;;;35.59;36.95
18850;BME280;4989;48.772;9.154;2023-09-07T15:38:32;98113.88;;;35.18;37.82
18850;BME280;4989;48.772;9.154;2023-09-07T15:43:35;98125.50;;;34.68;38.67
18850;BME280;4989;48.772;9.154;2023-09-07T15:48:40;98126.69;;;33.95;39.95
18850;BME280;4989;48.772;9.154;2023-09-07T15:53:45;98116.31;;;33.63;40.24
18850;BME280;4989;48.772;9.154;2023-09-07T15:58:48;98123.03;;;33.67;40.23
18850;BME280;4989;48.772;9.154;2023-09-07T16:03:51;98129.00;;;33.29;41.47
18850;BME280;4989;48.772;9.154;2023-09-07T16:08:53;98112.34;;;32.43;42.91
18850;BME280;4989;48.772;9.154;2023-09-07T16:13:55;98128.28;;;32.88;40.53
18850;BME280;4989;48.772;9.154;2023-09-07T16:18:57;98124.63;;;32.70;41.41
18850;BME280;4989;48.772;9.154;2023-09-07T16:24:00;98114.81;;;32.38;41.17
18850;BME280;4989;48.772;9.154;2023-09-07T16:29:03;98120.03;;;31.71;42.89
18850;BME280;4989;48.772;9.154;2023-09-07T16:34:05;98109.53;;;31.25;44.21
18850;BME280;4989;48.772;9.154;2023-09-07T16:39:09;98125.25;;;30.98;43.16
18850;BME280;4989;48.772;9.154;2023-09-07T16:44:12;98120.78;;;31.02;44.62
18850;BME280;4989;48.772;9.154;2023-09-07T16:49:14;98127.31;;;30.38;45.94
18850;BME280;4989;48.772;9.154;2023-09-07T16:54:16;98138.25;;;29.92;46.67
18850;BME280;4989;48.772;9.154;2023-09-07T16:59:19;98138.16;;;29.77;45.13
18850;BME280;4989;48.772;9.154;2023-09-07T17:04:41;98146.13;;;29.94;44.17
18850;BME280;4989;48.772;9.154;2023-09-07T17:09:43;98139.25;;;29.74;47.85
18850;BME280;4989;48.772;9.154;2023-09-07T17:14:45;98141.53;;;29.54;46.60
18850;BME280;4989;48.772;9.154;2023-09-07T17:19:50;98147.66;;;29.53;48.91
18850;BME280;4989;48.772;9.154;2023-09-07T17:24:54;98148.00;;;29.49;43.82
18850;BME280;4989;48.772;9.154;2023-09-07T17:29:56;98149.81;;;29.39;46.64
18850;BME280;4989;48.772;9.154;2023-09-07T17:35:06;98150.16;;;29.35;46.56
18850;BME280;4989;48.772;9.154;2023-09-07T17:40:09;98147.97;;;29.20;45.58
18850;BME280;4989;48.772;9.154;2023-09-07T17:45:12;98151.63;;;29.15;45.80
18850;BME280;4989;48.772;9.154;2023-09-07T17:50:14;98155.44;;;29.05;44.65
18850;BME280;4989;48.772;9.154;2023-09-07T17:55:17;98164.03;;;28.72;45.84
18850;BME280;4989;48.772;9.154;2023-09-07T18:00:19;98178.72;;;28.25;47.95
18850;BME280;4989;48.772;9.154;2023-09-07T18:05:23;98188.94;;;27.64;50.14
18850;BME280;4989;48.772;9.154;2023-09-07T18:10:25;98188.88;;;27.37;50.99
18850;BME280;4989;48.772;9.154;2023-09-07T18:15:28;98206.53;;;27.46;50.84
18850;BME280;4989;48.772;9.154;2023-09-07T18:20:31;98203.22;;;28.06;49.20
18850;BME280;4989;48.772;9.154;2023-09-07T18:25:36;98204.97;;;28.36;48.12
18850;BME280;4989;48.772;9.154;2023-09-07T18:30:42;98209.78;;;28.35;47.82
18850;BME280;4989;48.772;9.154;2023-09-07T18:35:45;98208.69;;;28.38;47.61
18850;BME280;4989;48.772;9.154;2023-09-07T18:40:48;98216.16;;;28.36;47.60
18850;BME280;4989;48.772;9.154;2023-09-07T18:45:50;98209.34;;;28.31;46.93
18850;BME280;4989;48.772;9.154;2023-09-07T18:51:00;98228.19;;;28.17;47.44
18850;BME280;4989;48.772;9.154;2023-09-07T18:56:04;98219.69;;;27.77;48.04
18850;BME280;4989;48.772;9.154;2023-09-07T19:01:13;98218.16;;;27.95;47.36
18850;BME280;4989;48.772;9.154;2023-09-07T19:06:16;98213.13;;;27.94;47.77
18850;BME280;4989;48.772;9.154;2023-09-07T19:11:19;98212.25;;;27.99;47.51
18850;BME280;4989;48.772;9.154;2023-09-07T19:16:21;98212.00;;;27.83;47.66
18850;BME280;4989;48.772;9.154;2023-09-07T19:21:28;98213.53;;;27.84;48.00
18850;BME280;4989;48.772;9.154;2023-09-07T19:26:38;98210.81;;;27.79;48.34
18850;BME280;4989;48.772;9.154;2023-09-07T19:31:42;98214.13;;;27.77;47.97
18850;BME280;4989;48.772;9.154;2023-09-07T19:36:47;98222.47;;;27.64;48.46
18850;BME280;4989;48.772;9.154;2023-09-07T19:41:50;98219.03;;;27.58;49.73
18850;BME280;4989;48.772;9.154;2023-09-07T19:46:53;98218.78;;;27.56;48.47
18850;BME280;4989;48.772;9.154;2023-09-07T19:52:01;98218.66;;;27.48;49.69
18850;BME280;4989;48.772;9.154;2023-09-07T19:57:04;98224.47;;;27.50;48.82
18850;BME280;4989;48.772;9.154;2023-09-07T20:02:07;98231.09;;;27.47;50.80
18850;BME280;4989;48.772;9.154;2023-09-07T20:07:09;98231.63;;;27.32;50.72
18850;BME280;4989;48.772;9.154;2023-09-07T20:12:15;98233.72;;;27.26;52.60
18850;BME280;4989;48.772;9.154;2023-09-07T20:17:17;98228.13;;;27.26;51.38
18850;BME280;4989;48.772;9.154;2023-09-07T20:22:23;98226.31;;;27.29;53.58
18850;BME280;4989;48.772;9.154;2023-09-07T20:27:30;98219.91;;;27.34;53.33
18850;BME280;4989;48.772;9.154;2023-09-07T20:32:32;98227.53;;;27.33;53.45
18850;BME280;4989;48.772;9.154;2023-09-07T20:37:35;98228.59;;;27.30;53.47
18850;BME280;4989;48.772;9.154;2023-09-07T20:42:38;98228.50;;;27.17;53.07
18850;BME280;4989;48.772;9.154;2023-09-07T20:47:41;98233.41;;;27.11;54.30
18850;BME280;4989;48.772;9.154;2023-09-07T20:52:45;98227.38;;;26.69;54.25
18850;BME280;4989;48.772;9.154;2023-09-07T20:57:48;98218.09;;;26.80;53.29
18850;BME280;4989;48.772;9.154;2023-09-07T21:02:55;98227.94;;;26.62;52.79
18850;BME280;4989;48.772;9.154;2023-09-07T21:07:58;98225.84;;;26.68;55.90
18850;BME280;4989;48.772;9.154;2023-09-07T21:13:00;98233.84;;;26.58;53.86
18850;BME280;4989;48.772;9.154;2023-09-07T21:18:04;98230.41;;;26.22;55.28
18850;BME280;4989;48.772;9.154;2023-09-07T21:23:07;98232.94;;;26.44;54.24
18850;BME280;4989;48.772;9.154;2023-09-07T21:28:11;98231.84;;;26.53;54.76
18850;BME280;4989;48.772;9.154;2023-09-07T21:33:14;98232.78;;;26.61;53.68
18850;BME280;4989;48.772;9.154;2023-09-07T21:38:17;98230.69;;;25.94;55.29
18850;BME280;4989;48.772;9.154;2023-09-07T21:43:20;98232.41;;;25.67;55.47
18850;BME280;4989;48.772;9.154;2023-09-07T21:48:23;98233.94;;;25.32;56.66
18850;BME280;4989;48.772;9.154;2023-09-07T21:53:26;98244.22;;;25.78;57.76
18850;BME280;4989;48.772;9.154;2023-09-07T21:58:29;98239.00;;;25.99;55.81
18850;BME280;4989;48.772;9.154;2023-09-07T22:03:31;98236.69;;;26.03;56.42
18850;BME280;4989;48.772;9.154;2023-09-07T22:08:34;98228.81;;;25.72;56.74
18850;BME280;4989;48.772;9.154;2023-09-07T22:13:38;98227.81;;;25.39;58.02
18850;BME280;4989;48.772;9.154;2023-09-07T22:18:40;98237.94;;;25.42;57.00
18850;BME280;4989;48.772;9.154;2023-09-07T22:23:43;98230.22;;;24.65;58.79
18850;BME280;4989;48.772;9.154;2023-09-07T22:28:46;98229.00;;;24.55;60.01
18850;BME280;4989;48.772;9.154;2023-09-07T22:33:48;98226.94;;;24.67;60.23
18850;BME280;4989;48.772;9.154;2023-09-07T22:38:51;98223.97;;;24.37;60.56
18850;BME280;4989;48.772;9.154;2023-09-07T22:43:56;98218.50;;;23.58;62.65
18850;BME280;4989;48.772;9.154;2023-09-07T22:48:58;98219.00;;;23.28;64.58
18850;BME280;4989;48.772;9.154;2023-09-07T22:54:01;98213.94;;;23.21;65.36
18850;BME280;4989;48.772;9.154;2023-09-07T22:59:05;98214.91;;;24.31;63.52
18850;BME280;4989;48.772;9.154;2023-09-07T23:04:10;98221.56;;;24.80;63.05
18850;BME280;4989;48.772;9.154;2023-09-07T23:09:13;98218.69;;;24.97;59.84
18850;BME280;4989;48.772;9.154;2023-09-07T23:14:16;98219.47;;;24.22;61.47
18850;BME280;4989;48.772;9.154;2023-09-07T23:19:19;98223.06;;;23.84;63.50
18850;BME280;4989;48.772;9.154;2023-09-07T23:24:21;98216.13;;;24.35;64.13
18850;BME280;4989;48.772;9.154;2023-09-07T23:29:25;98219.94;;;24.49;61.06
18850;BME280;4989;48.772;9.154;2023-09-07T23:34:28;98224.81;;;24.04;63.08
18850;BME280;4989;48.772;9.154;2023-09-07T23:39:32;98214.25;;;23.85;63.32
18850;BME280;4989;48.772;9.154;2023-09-07T23:44:35;98213.94;;;24.11;63.61
18850;BME280;4989;48.772;9.154;2023-09-07T23:49:39;98208.63;;;24.19;62.60
18850;BME280;4989;48.772;9.154;2023-09-07T23:54:42;98209.69;;;23.37;64.18
18850;BME280;4989;48.772;9.154;2023-09-07T23:59:44;98209.94;;;23.67;68.73
